Time;durP1;ratioP1;P1;durP2;ratioP2;P2;SDS_P1;SDS_P2;PMS_P1;PMS_P2;Temp;Humidity;BMP_temperature;BMP_pressure;BME280_temperature;BME280_humidity;BME280_pressure;Samples;Min_cycle;Max_cycle;Signal;HPM_P1;HPM_P2
2021/10/03 00:00:49;;;;;;;10.60;6.88;;;;;;;13.45;77.52;95726.06;4966302;28;20124;-75
2021/10/03 00:03:19;;;;;;;9.98;6.25;;;;;;;13.46;77.32;95728.44;4984858;28;20057;-75
2021/10/03 00:05:47;;;;;;;9.30;5.78;;;;;;;13.50;77.30;95732.09;4986047;28;20107;-77
2021/10/03 00:08:13;;;;;;;8.52;6.22;;;;;;;13.53;77.30;95738.81;4985970;28;20103;-75
2021/10/03 00:10:40;;;;;;;9.65;6.38;;;;;;;13.53;77.47;95736.88;4985812;28;20058;-75
2021/10/03 00:13:07;;;;;;;11.25;6.03;;;;;;;13.55;77.13;95740.03;4986229;28;20141;-74
2021/10/03 00:15:35;;;;;;;8.30;5.82;;;;;;;13.56;77.04;95746.28;4986536;28;20046;-77
2021/10/03 00:18:04;;;;;;;9.27;5.70;;;;;;;13.55;76.95;95747.44;4985122;28;20046;-73
2021/10/03 00:20:31;;;;;;;8.73;6.03;;;;;;;13.58;76.80;95744.81;4986145;28;20497;-75
2021/10/03 00:22:58;;;;;;;8.23;5.97;;;;;;;13.55;76.49;95739.25;4985416;28;20077;-75
2021/10/03 00:25:26;;;;;;;8.15;5.97;;;;;;;13.52;76.65;95734.47;4985704;28;20580;-75
2021/10/03 00:27:54;;;;;;;9.48;6.30;;;;;;;13.47;76.82;95732.81;4985619;28;20158;-75
2021/10/03 00:30:22;;;;;;;10.35;6.25;;;;;;;13.43;76.44;95722.91;4985176;28;20058;-75
2021/10/03 00:32:48;;;;;;;9.45;6.05;;;;;;;13.42;76.82;95724.06;4985824;28;20058;-75
2021/10/03 00:35:17;;;;;;;8.80;6.82;;;;;;;13.37;76.80;95721.59;4984951;28;20046;-76
2021/10/03 00:37:44;;;;;;;9.15;6.45;;;;;;;13.36;76.60;95725.44;4986171;28;20054;-76
2021/10/03 00:40:12;;;;;;;7.63;5.93;;;;;;;13.35;76.47;95726.59;4984482;28;20050;-76
2021/10/03 00:42:40;;;;;;;8.38;6.45;;;;;;;13.34;76.39;95722.28;4985517;28;20408;-77
2021/10/03 00:45:09;;;;;;;6.97;5.70;;;;;;;13.30;76.60;95712.03;4984421;28;20520;-77
2021/10/03 00:47:36;;;;;;;7.93;5.95;;;;;;;13.29;76.81;95710.44;4986148;28;20046;-75
2021/10/03 00:50:04;;;;;;;8.52;6.50;;;;;;;13.29;77.15;95710.44;4984669;28;20082;-76
2021/10/03 00:52:32;;;;;;;8.18;5.93;;;;;;;13.25;77.14;95706.81;4985520;28;20501;-76
2021/10/03 00:54:59;;;;;;;8.50;6.35;;;;;;;13.22;77.31;95704.81;4985273;28;20061;-73
2021/10/03 00:57:26;;;;;;;8.65;6.25;;;;;;;13.22;77.37;95699.34;4985030;28;20588;-77
2021/10/03 00:59:53;;;;;;;9.13;7.10;;;;;;;13.17;77.32;95702.28;4985491;28;20058;-77
2021/10/03 01:02:20;;;;;;;9.23;6.72;;;;;;;13.14;77.07;95697.50;4984487;28;20084;-76
2021/10/03 01:04:46;;;;;;;9.02;6.82;;;;;;;13.11;77.07;95695.50;4985612;28;20050;-77
2021/10/03 01:07:13;;;;;;;10.38;6.90;;;;;;;13.07;77.07;95697.34;4984503;28;20054;-77
2021/10/03 01:09:41;;;;;;;9.02;6.93;;;;;;;13.03;76.87;95690.97;4985634;28;20046;-76
2021/10/03 01:12:08;;;;;;;10.20;6.88;;;;;;;13.00;76.57;95691.69;4984336;28;20057;-77
2021/10/03 01:14:35;;;;;;;10.20;7.03;;;;;;;12.95;77.04;95690.00;4985462;28;20068;-77
2021/10/03 01:17:01;;;;;;;10.52;6.60;;;;;;;12.91;76.59;95691.84;4984775;28;20061;-72
2021/10/03 01:19:28;;;;;;;9.77;7.40;;;;;;;12.87;76.89;95681.94;4985027;28;20046;-77
2021/10/03 01:21:56;;;;;;;10.02;7.32;;;;;;;12.82;77.01;95683.00;4985378;28;20051;-77
2021/10/03 01:24:23;;;;;;;13.27;7.57;;;;;;;12.80;77.12;95683.34;4984342;28;20065;-77
2021/10/03 01:26:49;;;;;;;12.02;7.90;;;;;;;12.81;77.14;95686.88;4985627;28;20050;-76
2021/10/03 01:29:16;;;;;;;14.80;7.50;;;;;;;12.76;77.16;95682.44;4984004;28;20043;-77
2021/10/03 01:31:42;;;;;;;11.63;7.80;;;;;;;12.75;77.29;95686.31;4985500;28;20046;-76
2021/10/03 01:34:09;;;;;;;11.13;7.88;;;;;;;12.74;77.15;95684.75;4984606;28;20053;-76
2021/10/03 01:36:36;;;;;;;11.50;7.13;;;;;;;12.75;77.53;95680.88;4985375;28;20065;-77
2021/10/03 01:39:04;;;;;;;8.73;7.18;;;;;;;12.73;77.50;95677.66;4984126;28;20055;-76
2021/10/03 01:41:31;;;;;;;12.52;7.82;;;;;;;12.73;77.58;95680.41;4985072;28;20081;-77
2021/10/03 01:43:58;;;;;;;10.68;7.60;;;;;;;12.73;77.81;95672.19;4985091;28;20760;-77
2021/10/03 01:46:24;;;;;;;9.93;6.55;;;;;;;12.76;77.54;95673.47;4983947;28;20042;-77
2021/10/03 01:48:51;;;;;;;9.75;7.30;;;;;;;12.79;76.95;95668.09;4981136;28;20051;-77
2021/10/03 01:51:18;;;;;;;10.43;7.28;;;;;;;12.78;77.05;95674.69;4983797;28;20531;-77
2021/10/03 01:53:47;;;;;;;9.18;7.13;;;;;;;12.82;76.68;95668.53;4980511;28;20043;-76
2021/10/03 01:56:16;;;;;;;10.95;7.18;;;;;;;12.78;76.72;95662.97;4985959;28;20058;-76
2021/10/03 01:58:45;;;;;;;10.13;7.45;;;;;;;12.72;76.72;95667.88;4988655;28;20051;-77
2021/10/03 02:01:16;;;;;;;9.50;7.20;;;;;;;12.66;76.71;95661.09;4986994;28;20058;-77
2021/10/03 02:03:42;;;;;;;12.45;7.65;;;;;;;12.65;76.96;95654.03;4987895;28;20053;-77
2021/10/03 02:06:09;;;;;;;10.57;7.45;;;;;;;12.62;77.09;95657.44;4987231;28;20042;-76
2021/10/03 02:08:36;;;;;;;9.05;7.18;;;;;;;12.57;77.14;95654.97;4987546;28;20050;-76
2021/10/03 02:11:02;;;;;;;12.45;7.88;;;;;;;12.55;77.26;95654.53;4987478;28;20055;-77
2021/10/03 02:13:31;;;;;;;10.15;7.43;;;;;;;12.57;76.74;95657.69;4987465;28;20050;-77
2021/10/03 02:16:01;;;;;;;12.93;7.68;;;;;;;12.52;77.14;95660.69;4988031;28;20065;-77
2021/10/03 02:18:34;;;;;;;10.50;7.93;;;;;;;12.47;77.40;95652.72;4986709;28;20100;-77
2021/10/03 02:21:01;;;;;;;11.23;7.97;;;;;;;12.45;77.29;95649.56;4987666;28;20108;-77
2021/10/03 02:23:28;;;;;;;13.40;7.95;;;;;;;12.40;77.16;95642.41;4985858;28;20058;-76
2021/10/03 02:25:54;;;;;;;13.30;7.93;;;;;;;12.40;77.07;95647.88;4984500;28;20057;-77
2021/10/03 02:28:23;;;;;;;9.23;7.18;;;;;;;12.42;76.96;95642.06;4986930;28;20054;-77
2021/10/03 02:30:53;;;;;;;13.80;7.82;;;;;;;12.41;76.91;95644.00;4986901;28;20058;-77
2021/10/03 02:33:20;;;;;;;10.10;7.05;;;;;;;12.40;76.47;95647.09;4987408;28;20050;-77
2021/10/03 02:35:47;;;;;;;9.52;7.40;;;;;;;12.38;76.86;95649.38;4986813;28;20050;-77
2021/10/03 02:38:15;;;;;;;12.75;7.88;;;;;;;12.32;76.37;95645.28;4987536;28;20051;-77
2021/10/03 02:40:44;;;;;;;9.45;6.85;;;;;;;12.34;76.20;95648.47;4986643;28;20058;-76
2021/10/03 02:43:11;;;;;;;12.75;7.47;;;;;;;12.25;75.80;95652.13;4987805;28;20054;-76
2021/10/03 02:45:45;;;;;;;11.98;8.07;;;;;;;12.17;76.38;95650.34;4987107;28;20054;-77
2021/10/03 02:48:14;;;;;;;12.20;8.30;;;;;;;12.12;76.98;95645.13;4987089;28;20058;-77
2021/10/03 02:50:41;;;;;;;13.52;8.00;;;;;;;12.04;76.86;95651.50;4987324;28;20057;-77
2021/10/03 02:53:09;;;;;;;14.45;8.85;;;;;;;11.98;77.11;95636.50;4986618;28;20058;-77
2021/10/03 02:55:36;;;;;;;14.70;8.98;;;;;;;11.95;77.55;95643.47;4987201;28;20070;-76
2021/10/03 02:58:03;;;;;;;12.43;8.50;;;;;;;11.93;77.25;95640.25;4986556;28;20054;-76
2021/10/03 03:00:30;;;;;;;12.90;8.20;;;;;;;11.98;77.41;95639.22;4987686;28;20081;-77
2021/10/03 03:02:56;;;;;;;13.32;8.25;;;;;;;11.96;77.31;95633.34;4986912;28;20058;-77
2021/10/03 03:05:24;;;;;;;11.25;8.65;;;;;;;11.90;77.38;95635.50;4986699;28;20061;-77
2021/10/03 03:07:51;;;;;;;13.77;8.63;;;;;;;11.85;77.31;95632.19;4986864;28;20054;-77
2021/10/03 03:10:17;;;;;;;12.25;8.32;;;;;;;11.80;77.89;95627.75;4986610;28;20054;-77
2021/10/03 03:12:44;;;;;;;15.02;9.30;;;;;;;11.76;77.94;95624.91;4987059;28;20107;-79
2021/10/03 03:15:11;;;;;;;13.05;8.65;;;;;;;11.77;78.18;95636.63;4986302;28;20046;-76
2021/10/03 03:17:38;;;;;;;12.48;8.02;;;;;;;11.82;76.96;95638.34;4987288;28;20046;-76
2021/10/03 03:20:06;;;;;;;11.65;8.20;;;;;;;11.81;77.51;95634.00;4986018;28;20061;-77
2021/10/03 03:22:34;;;;;;;14.20;8.77;;;;;;;11.81;77.81;95628.56;4987246;28;20046;-77
2021/10/03 03:25:01;;;;;;;13.63;8.02;;;;;;;11.80;77.88;95622.31;4986188;28;20077;-77
2021/10/03 03:27:28;;;;;;;10.02;7.85;;;;;;;11.79;78.20;95622.63;4986855;28;20046;-77
2021/10/03 03:29:54;;;;;;;12.75;7.85;;;;;;;11.77;78.14;95631.16;4986153;28;20062;-77
2021/10/03 03:32:21;;;;;;;16.00;9.80;;;;;;;11.75;78.56;95631.50;4985914;28;20047;-76
2021/10/03 03:34:47;;;;;;;15.65;8.95;;;;;;;11.79;78.10;95625.34;4986166;28;20133;-76
2021/10/03 03:37:14;;;;;;;18.20;8.98;;;;;;;11.77;78.20;95623.78;4985656;28;20057;-76
2021/10/03 03:39:42;;;;;;;17.13;8.95;;;;;;;11.75;78.02;95617.88;4986638;28;20054;-77
2021/10/03 03:42:08;;;;;;;16.13;8.50;;;;;;;11.75;78.19;95620.59;4985424;28;20047;-76
2021/10/03 03:44:35;;;;;;;14.95;8.43;;;;;;;11.76;78.15;95622.19;4987089;28;20058;-76
2021/10/03 03:47:02;;;;;;;18.70;9.40;;;;;;;11.72;77.84;95618.53;4984995;28;20058;-73
2021/10/03 03:49:29;;;;;;;13.88;8.90;;;;;;;11.68;77.96;95614.91;4986750;28;20046;-77
2021/10/03 03:51:56;;;;;;;15.77;8.80;;;;;;;11.65;78.22;95617.53;4985272;28;20054;-77
2021/10/03 03:54:23;;;;;;;14.98;9.90;;;;;;;11.64;78.33;95611.31;4985731;28;20061;-76
2021/10/03 03:56:51;;;;;;;17.73;9.65;;;;;;;11.66;78.45;95614.47;4985546;28;20050;-77
2021/10/03 03:59:17;;;;;;;16.60;9.52;;;;;;;11.67;78.03;95613.31;4985648;28;20047;-76
2021/10/03 04:01:44;;;;;;;15.82;9.35;;;;;;;11.68;78.03;95612.19;4985814;28;20050;-76
2021/10/03 04:04:10;;;;;;;17.42;10.38;;;;;;;11.69;77.50;95608.34;4984993;28;20455;-76
2021/10/03 04:06:37;;;;;;;14.23;8.52;;;;;;;11.67;77.83;95607.88;4985993;28;20070;-76
2021/10/03 04:09:06;;;;;;;18.92;10.20;;;;;;;11.66;77.99;95609.03;4984985;28;20053;-76
2021/10/03 04:11:32;;;;;;;16.40;10.25;;;;;;;11.65;78.05;95601.97;4986240;28;20049;-76
2021/10/03 04:14:00;;;;;;;14.65;9.13;;;;;;;11.64;77.74;95600.41;4985889;28;20050;-78
2021/10/03 04:16:26;;;;;;;18.52;10.48;;;;;;;11.63;77.76;95603.44;4977980;28;20508;-76
2021/10/03 04:18:54;;;;;;;18.15;10.30;;;;;;;11.60;77.93;95604.94;4984876;28;20050;-76
2021/10/03 04:21:20;;;;;;;22.77;12.18;;;;;;;11.60;78.12;95601.41;4985473;28;20054;-76
2021/10/03 04:23:47;;;;;;;14.40;9.45;;;;;;;11.58;77.95;95607.19;4985876;28;20055;-77
2021/10/03 04:26:13;;;;;;;16.50;10.35;;;;;;;11.57;77.86;95594.69;4984879;28;20111;-77
2021/10/03 04:28:40;;;;;;;18.92;10.50;;;;;;;11.57;78.21;95599.38;4986092;28;20050;-77
2021/10/03 04:31:09;;;;;;;18.85;11.02;;;;;;;11.56;77.92;95595.06;4984909;28;20050;-75
2021/10/03 04:33:40;;;;;;;16.88;11.07;;;;;;;11.55;78.06;95596.19;4986330;28;20042;-76
2021/10/03 04:36:07;;;;;;;16.60;10.57;;;;;;;11.54;78.26;95589.13;4984836;28;20564;-75
2021/10/03 04:38:33;;;;;;;18.30;11.00;;;;;;;11.57;77.86;95585.72;4986320;28;20053;-77
2021/10/03 04:41:00;;;;;;;17.85;11.00;;;;;;;11.53;77.72;95582.88;4985211;28;20055;-76
2021/10/03 04:43:26;;;;;;;17.27;10.23;;;;;;;11.51;77.75;95585.16;4985970;28;20050;-76
2021/10/03 04:45:53;;;;;;;16.23;10.65;;;;;;;11.53;77.76;95587.53;4985961;28;20111;-77
2021/10/03 04:48:21;;;;;;;16.25;10.10;;;;;;;11.50;77.57;95587.09;4985125;28;20560;-76
2021/10/03 04:50:47;;;;;;;17.05;9.88;;;;;;;11.53;77.68;95582.88;4985516;28;20403;-77
2021/10/03 04:53:13;;;;;;;20.85;11.07;;;;;;;11.53;77.29;95593.78;4985059;28;20654;-75
2021/10/03 04:55:40;;;;;;;17.05;10.35;;;;;;;11.50;77.56;95595.28;4985399;28;20064;-77
2021/10/03 04:58:06;;;;;;;15.13;10.20;;;;;;;11.47;77.61;95589.72;4984508;28;20047;-75
2021/10/03 05:00:33;;;;;;;16.48;10.65;;;;;;;11.44;77.78;95590.41;4985986;28;20756;-76
2021/10/03 05:03:00;;;;;;;17.42;10.27;;;;;;;11.41;77.74;95591.09;4984801;28;20058;-76
2021/10/03 05:05:28;;;;;;;18.27;10.82;;;;;;;11.37;77.23;95590.16;4985050;28;20054;-77
2021/10/03 05:07:54;;;;;;;17.17;10.38;;;;;;;11.36;77.54;95596.75;4985172;28;20521;-77
2021/10/03 05:10:20;;;;;;;17.02;10.10;;;;;;;11.34;77.57;95596.31;4984983;28;20058;-76
2021/10/03 05:12:47;;;;;;;16.33;9.73;;;;;;;11.35;77.80;95592.47;4985189;28;20414;-77
2021/10/03 05:15:14;;;;;;;15.55;9.70;;;;;;;11.34;77.88;95597.13;4984577;28;20056;-77
2021/10/03 05:17:40;;;;;;;17.25;10.35;;;;;;;11.34;77.94;95596.31;4985470;28;20050;-77
2021/10/03 05:20:07;;;;;;;15.75;10.30;;;;;;;11.34;77.60;95599.03;4983934;28;20050;-75
2021/10/03 05:22:35;;;;;;;18.23;10.90;;;;;;;11.33;77.59;95597.44;4985450;28;20051;-76
2021/10/03 05:25:02;;;;;;;19.05;10.52;;;;;;;11.32;77.67;95596.63;4984059;28;20054;-75
2021/10/03 05:27:29;;;;;;;17.15;10.63;;;;;;;11.32;77.44;95593.13;4985395;28;20054;-76
2021/10/03 05:29:55;;;;;;;17.85;10.73;;;;;;;11.31;77.78;95600.50;4986758;28;20093;-76
2021/10/03 05:32:22;;;;;;;18.77;10.95;;;;;;;11.32;77.66;95604.03;4988223;28;20058;-76
2021/10/03 05:34:48;;;;;;;17.02;10.45;;;;;;;11.36;77.58;95604.94;4988352;28;20058;-75
2021/10/03 05:37:15;;;;;;;17.25;10.27;;;;;;;11.37;77.85;95596.41;4988064;28;20054;-76
2021/10/03 05:39:42;;;;;;;16.17;10.57;;;;;;;11.37;77.67;95596.41;4988789;28;20061;-76
2021/10/03 05:42:09;;;;;;;15.55;9.98;;;;;;;11.42;78.44;95598.13;4987158;28;20525;-77
2021/10/03 05:44:36;;;;;;;16.33;10.38;;;;;;;11.46;77.45;95601.75;4988913;28;20572;-76
2021/10/03 05:47:02;;;;;;;16.48;10.70;;;;;;;11.48;77.53;95596.75;4987273;28;20061;-76
2021/10/03 05:49:29;;;;;;;17.60;10.75;;;;;;;11.52;77.54;95605.06;4988927;28;20054;-77
2021/10/03 05:51:55;;;;;;;16.73;10.27;;;;;;;11.55;77.57;95602.44;4987579;28;20540;-76
2021/10/03 05:54:22;;;;;;;16.40;10.10;;;;;;;11.60;77.11;95604.94;4986841;28;20412;-76
2021/10/03 05:56:50;;;;;;;15.00;9.68;;;;;;;11.62;77.40;95597.19;4987633;28;20066;-76
2021/10/03 05:59:16;;;;;;;17.15;10.52;;;;;;;11.64;76.98;95605.03;4987813;28;20061;-76
2021/10/03 06:01:43;;;;;;;15.30;10.45;;;;;;;11.65;77.19;95598.47;4988097;28;20058;-76
2021/10/03 06:04:09;;;;;;;17.10;10.38;;;;;;;11.68;77.06;95601.28;4987068;28;20053;-77
2021/10/03 06:06:36;;;;;;;14.95;9.65;;;;;;;11.74;77.30;95602.66;4988161;28;20046;-77
2021/10/03 06:09:03;;;;;;;16.25;9.90;;;;;;;11.79;77.30;95595.34;4987193;28;20050;-78
2021/10/03 06:11:29;;;;;;;16.17;9.40;;;;;;;11.85;77.30;95591.28;4988412;28;20047;-76
2021/10/03 06:13:58;;;;;;;15.68;9.95;;;;;;;11.88;76.84;95593.31;4987555;28;20054;-76
2021/10/03 06:16:25;;;;;;;17.50;10.07;;;;;;;11.92;76.72;95589.56;4988039;28;20557;-77
2021/10/03 06:18:51;;;;;;;15.30;9.98;;;;;;;11.99;77.00;95595.22;4987439;28;20050;-76
2021/10/03 06:21:18;;;;;;;15.77;10.60;;;;;;;12.07;76.98;95598.19;4987556;28;20508;-77
2021/10/03 06:23:45;;;;;;;16.83;10.18;;;;;;;12.12;77.01;95587.81;4987239;28;20084;-77
2021/10/03 06:26:13;;;;;;;15.48;9.40;;;;;;;12.19;76.75;95590.72;4987119;28;20501;-76
2021/10/03 06:28:39;;;;;;;19.73;10.32;;;;;;;12.25;76.58;95592.06;4987904;28;20069;-76
2021/10/03 06:31:07;;;;;;;14.45;9.63;;;;;;;12.32;75.92;95599.69;4987600;28;20061;-77
2021/10/03 06:33:35;;;;;;;17.58;9.73;;;;;;;12.37;75.86;95601.34;4988440;28;20054;-76
2021/10/03 06:36:01;;;;;;;14.75;9.02;;;;;;;12.38;75.56;95594.78;4986974;28;20137;-76
2021/10/03 06:38:27;;;;;;;15.63;9.07;;;;;;;12.42;75.57;95595.63;4987938;28;20043;-76
2021/10/03 06:40:54;;;;;;;14.82;9.07;;;;;;;12.47;75.67;95587.19;4986108;28;20055;-76
2021/10/03 06:43:20;;;;;;;12.07;8.65;;;;;;;12.52;75.25;95584.22;4987360;28;20058;-76
2021/10/03 06:45:47;;;;;;;14.10;9.05;;;;;;;12.58;75.50;95577.38;4986958;28;20049;-76
2021/10/03 06:48:15;;;;;;;12.07;8.20;;;;;;;12.62;74.04;95580.97;4986946;28;20062;-76
2021/10/03 06:50:41;;;;;;;13.80;7.97;;;;;;;12.67;74.74;95585.41;4987305;28;20054;-76
2021/10/03 06:53:08;;;;;;;14.10;8.70;;;;;;;12.72;74.50;95579.69;4986844;28;20061;-77
2021/10/03 06:55:34;;;;;;;12.90;8.35;;;;;;;12.81;74.26;95580.31;4987604;28;20050;-77
2021/10/03 06:58:01;;;;;;;14.75;8.73;;;;;;;12.91;73.78;95584.47;4987020;28;20496;-77
2021/10/03 07:00:28;;;;;;;14.68;8.85;;;;;;;13.05;73.26;95582.91;4987245;28;20065;-77
2021/10/03 07:02:54;;;;;;;14.18;8.80;;;;;;;13.48;72.05;95580.44;4986884;28;20065;-77
2021/10/03 07:05:22;;;;;;;11.85;8.27;;;;;;;14.02;69.71;95576.94;4986959;28;20051;-77
2021/10/03 07:07:49;;;;;;;13.23;8.32;;;;;;;14.52;67.93;95586.22;4986675;28;20528;-76
2021/10/03 07:10:15;;;;;;;10.40;7.75;;;;;;;14.98;66.11;95589.00;4986480;28;20054;-76
2021/10/03 07:12:42;;;;;;;17.98;11.82;;;;;;;15.55;64.96;95585.25;4987150;28;20501;-77
2021/10/03 07:15:09;;;;;;;14.75;9.35;;;;;;;16.05;61.57;95590.72;4986314;28;20505;-76
2021/10/03 07:17:35;;;;;;;10.20;7.30;;;;;;;16.01;61.68;95593.41;4987150;28;20049;-76
2021/10/03 07:20:03;;;;;;;10.55;6.82;;;;;;;15.74;61.96;95592.63;4986231;28;20049;-76
2021/10/03 07:22:31;;;;;;;9.90;7.15;;;;;;;15.58;63.20;95589.22;4987536;28;20054;-76
2021/10/03 07:24:57;;;;;;;10.38;6.75;;;;;;;15.88;62.68;95587.34;4986265;28;20046;-77
2021/10/03 07:27:24;;;;;;;9.80;6.80;;;;;;;16.59;60.65;95592.94;4986908;28;20505;-77
2021/10/03 07:29:50;;;;;;;10.85;6.15;;;;;;;17.16;58.18;95595.53;4986110;28;20054;-76
2021/10/03 07:32:17;;;;;;;9.43;6.45;;;;;;;17.73;56.33;95594.09;4986563;28;20057;-77
2021/10/03 07:34:44;;;;;;;10.63;6.10;;;;;;;18.15;54.94;95586.47;4986421;28;20137;-74
2021/10/03 07:37:10;;;;;;;8.52;6.07;;;;;;;18.51;54.16;95599.25;4986376;28;20046;-75
2021/10/03 07:39:38;;;;;;;7.57;5.38;;;;;;;18.80;52.68;95602.16;4986574;28;20054;-75
2021/10/03 07:42:06;;;;;;;7.07;5.32;;;;;;;18.97;52.03;95609.69;4985859;28;20054;-74
2021/10/03 07:44:33;;;;;;;8.57;5.40;;;;;;;19.19;51.18;95604.22;4986830;28;20047;-75
2021/10/03 07:46:59;;;;;;;7.43;5.40;;;;;;;19.46;50.81;95601.88;4982556;28;20047;-76
2021/10/03 07:49:26;;;;;;;6.55;4.57;;;;;;;19.88;50.62;95606.63;4947805;28;20043;-75
2021/10/03 07:51:52;;;;;;;7.97;5.43;;;;;;;20.37;50.14;95602.19;4947102;28;20055;-76
2021/10/03 07:54:19;;;;;;;8.05;4.93;;;;;;;20.75;48.68;95602.47;4958198;28;20062;-75
2021/10/03 07:56:46;;;;;;;8.90;5.55;;;;;;;21.09;46.95;95600.72;4966222;28;20066;-75
2021/10/03 07:59:13;;;;;;;6.60;5.18;;;;;;;21.57;46.90;95596.47;4966586;28;20068;-75
2021/10/03 08:01:39;;;;;;;8.23;5.20;;;;;;;21.76;44.57;95603.44;4972112;28;20058;-75
2021/10/03 08:04:06;;;;;;;9.30;4.93;;;;;;;21.75;45.85;95608.19;4985747;28;20054;-76
2021/10/03 08:06:32;;;;;;;8.73;4.85;;;;;;;21.37;46.29;95604.53;4986220;28;20061;-76
2021/10/03 08:09:00;;;;;;;7.53;5.50;;;;;;;20.91;47.13;95594.50;4985566;28;20133;-75
2021/10/03 08:11:27;;;;;;;8.30;6.40;;;;;;;20.34;48.41;95606.53;4985944;28;20559;-75
2021/10/03 08:13:54;;;;;;;12.13;6.65;;;;;;;19.89;50.64;95591.66;4985595;28;20053;-75
2021/10/03 08:16:21;;;;;;;9.60;5.80;;;;;;;19.77;50.92;95594.78;4985995;28;20062;-75
2021/10/03 08:18:49;;;;;;;8.20;5.93;;;;;;;19.81;50.56;95598.34;4985754;28;20466;-75
2021/10/03 08:21:17;;;;;;;9.75;6.22;;;;;;;19.65;50.99;95598.75;4985541;28;20061;-75
2021/10/03 08:23:43;;;;;;;7.85;5.13;;;;;;;19.54;52.37;95593.19;4985048;28;20053;-76
2021/10/03 08:26:10;;;;;;;8.02;5.78;;;;;;;19.49;52.72;95596.34;4985161;28;20058;-75
2021/10/03 08:28:37;;;;;;;9.07;5.47;;;;;;;19.44;51.41;95599.50;4985946;28;20053;-75
2021/10/03 08:31:04;;;;;;;9.23;5.80;;;;;;;19.39;51.78;95590.84;4984834;28;20057;-75
2021/10/03 08:33:31;;;;;;;8.48;5.10;;;;;;;19.25;52.62;95591.59;4986288;28;20050;-75
2021/10/03 08:35:57;;;;;;;9.13;5.78;;;;;;;19.17;53.70;95590.03;4985140;28;20065;-75
2021/10/03 08:38:24;;;;;;;9.30;5.50;;;;;;;19.15;53.94;95586.84;4985669;28;20497;-75
2021/10/03 08:40:51;;;;;;;7.05;5.03;;;;;;;19.24;53.29;95587.25;4984888;28;20451;-76
2021/10/03 08:43:18;;;;;;;8.00;5.20;;;;;;;19.20;53.59;95589.22;4985536;28;20046;-75
2021/10/03 08:45:45;;;;;;;6.55;5.00;;;;;;;19.15;54.24;95587.63;4985241;28;20425;-75
2021/10/03 08:48:16;;;;;;;8.82;5.70;;;;;;;19.12;55.07;95588.44;4985351;28;20058;-75
2021/10/03 08:50:45;;;;;;;7.97;4.90;;;;;;;19.14;55.55;95585.28;4985085;28;20053;-75
2021/10/03 08:53:11;;;;;;;7.65;5.20;;;;;;;19.21;56.51;95590.78;4984680;28;20046;-76
2021/10/03 08:55:38;;;;;;;10.70;5.53;;;;;;;19.27;57.33;95586.50;4985396;28;20394;-76
2021/10/03 08:58:04;;;;;;;8.70;5.50;;;;;;;19.30;57.67;95582.94;4984484;28;20054;-76
2021/10/03 09:00:31;;;;;;;6.78;4.32;;;;;;;19.26;55.09;95582.13;4985231;28;20046;-75
2021/10/03 09:03:02;;;;;;;7.38;4.55;;;;;;;19.25;55.14;95569.50;4968793;28;20130;-76
2021/10/03 09:05:32;;;;;;;6.18;4.60;;;;;;;19.26;55.42;95571.09;4978333;28;20050;-75
2021/10/03 09:08:06;;;;;;;6.35;4.25;;;;;;;19.37;56.32;95571.09;4970054;28;20460;-75
2021/10/03 09:10:59;;;;;;;10.77;4.82;;;;;;;19.43;56.19;95567.56;4965818;28;20134;-77
2021/10/03 09:13:44;;;;;;;7.10;4.70;;;;;;;19.56;57.29;95563.22;4969034;28;20050;-77
2021/10/03 09:16:12;;;;;;;5.70;4.43;;;;;;;19.81;56.11;95565.97;4972780;28;20047;-76
2021/10/03 09:18:43;;;;;;;14.20;5.57;;;;;;;20.02;56.36;95562.41;4984794;28;20501;-76
2021/10/03 09:21:13;;;;;;;8.20;4.38;;;;;;;20.15;56.06;95565.53;4983548;28;20054;-77
2021/10/03 09:23:39;;;;;;;7.90;4.53;;;;;;;20.37;55.55;95566.25;4967642;28;20051;-76
2021/10/03 09:26:12;;;;;;;7.22;4.10;;;;;;;20.66;54.90;95563.38;4982043;28;20131;-76
2021/10/03 09:28:39;;;;;;;9.82;5.60;;;;;;;20.95;56.37;95559.28;4983621;28;20054;-76
2021/10/03 09:31:08;;;;;;;7.57;6.20;;;;;;;21.17;55.41;95561.91;4955589;28;20051;-76
2021/10/03 09:33:47;;;;;;;5.47;3.78;;;;;;;21.21;54.25;95551.59;4967000;28;20053;-76
2021/10/03 09:36:16;;;;;;;6.80;4.25;;;;;;;21.15;54.04;95558.78;4979888;28;20057;-75
2021/10/03 09:38:55;;;;;;;5.03;3.63;;;;;;;21.13;52.17;95559.16;4974516;28;20046;-75
2021/10/03 09:41:23;;;;;;;7.45;3.80;;;;;;;21.10;53.27;95552.47;4981641;28;20054;-75
2021/10/03 09:43:54;;;;;;;4.97;3.47;;;;;;;21.20;53.95;95556.38;4965352;28;20055;-75
2021/10/03 09:46:39;;;;;;;6.13;3.83;;;;;;;21.26;52.84;95559.47;4965223;28;20051;-75
2021/10/03 09:49:07;;;;;;;5.32;3.90;;;;;;;21.31;52.89;95561.84;4964920;28;20564;-74
2021/10/03 09:51:36;;;;;;;4.88;3.85;;;;;;;21.38;51.82;95566.53;4964700;28;20050;-76
2021/10/03 09:54:04;;;;;;;5.70;3.58;;;;;;;21.48;51.67;95562.91;4974975;28;20061;-75
2021/10/03 09:56:31;;;;;;;4.78;3.90;;;;;;;21.62;52.56;95566.34;4983911;28;20047;-75
2021/10/03 09:58:59;;;;;;;5.82;3.60;;;;;;;21.72;52.14;95564.69;4979601;28;20047;-76
2021/10/03 10:01:26;;;;;;;6.32;3.70;;;;;;;21.85;52.68;95556.63;4964830;28;20398;-75
2021/10/03 10:03:53;;;;;;;5.75;3.42;;;;;;;21.96;52.21;95557.31;4979454;28;20047;-76
2021/10/03 10:06:21;;;;;;;8.52;3.50;;;;;;;22.01;52.95;95558.84;4964678;28;20054;-75
2021/10/03 10:08:55;;;;;;;4.78;3.40;;;;;;;22.07;52.63;95555.22;4964907;28;20050;-75
2021/10/03 10:11:27;;;;;;;5.13;3.50;;;;;;;22.13;53.07;95548.06;4964830;28;20065;-75
2021/10/03 10:13:56;;;;;;;6.37;2.97;;;;;;;22.18;52.48;95546.81;4964654;28;20054;-76
2021/10/03 10:16:33;;;;;;;4.90;3.42;;;;;;;22.25;52.02;95543.19;4966386;28;20051;-75
2021/10/03 10:19:29;;;;;;;5.88;3.45;;;;;;;22.35;53.78;95545.06;4967751;28;20058;-76
2021/10/03 10:22:38;;;;;;;7.47;3.40;;;;;;;22.36;51.97;95541.09;4984838;28;20046;-75
2021/10/03 10:25:16;;;;;;;4.03;3.13;;;;;;;22.45;51.04;95543.34;4986608;28;20062;-75
2021/10/03 10:27:59;;;;;;;5.13;3.22;;;;;;;22.51;50.99;95536.94;4987283;28;20043;-76
2021/10/03 10:30:27;;;;;;;4.85;3.15;;;;;;;22.57;51.21;95535.28;4967275;28;20057;-75
2021/10/03 10:33:14;;;;;;;5.70;3.00;;;;;;;22.59;51.88;95526.53;4980445;28;20131;-75
2021/10/03 10:35:44;;;;;;;4.20;3.00;;;;;;;22.53;52.47;95523.44;4972974;28;20058;-75
2021/10/03 10:38:14;;;;;;;4.32;3.33;;;;;;;22.50;51.80;95529.81;4982454;28;20046;-79
2021/10/03 10:40:42;;;;;;;6.60;3.75;;;;;;;22.48;52.85;95526.66;4983880;28;20767;-75
2021/10/03 10:43:40;;;;;;;4.55;3.35;;;;;;;22.44;54.60;95525.91;4988003;28;20057;-75
2021/10/03 10:46:06;;;;;;;4.32;3.13;;;;;;;22.38;53.24;95517.25;4986948;28;20058;-76
2021/10/03 10:48:33;;;;;;;6.22;3.50;;;;;;;22.36;53.65;95521.66;4987734;28;20058;-76
2021/10/03 10:51:19;;;;;;;5.45;3.08;;;;;;;22.36;53.49;95524.44;4987546;28;20062;-77
2021/10/03 10:53:45;;;;;;;7.85;3.58;;;;;;;22.36;54.26;95524.44;4985946;28;20077;-78
2021/10/03 10:56:16;;;;;;;5.47;3.60;;;;;;;22.35;53.89;95522.88;4983702;28;20051;-77
2021/10/03 10:59:03;;;;;;;4.53;3.25;;;;;;;22.36;53.14;95524.44;4967114;28;20117;-76
2021/10/03 11:01:40;;;;;;;4.95;3.45;;;;;;;22.39;54.21;95515.28;4971547;28;20046;-78
2021/10/03 11:04:24;;;;;;;5.97;3.30;;;;;;;22.42;54.16;95520.00;4966923;28;20058;-77
2021/10/03 11:07:00;;;;;;;5.13;3.08;;;;;;;22.42;52.50;95510.91;4965716;28;20069;-79
2021/10/03 11:09:28;;;;;;;6.40;3.42;;;;;;;22.41;52.29;95507.34;4967449;28;20066;-78
2021/10/03 11:12:31;;;;;;;4.40;3.17;;;;;;;22.43;52.62;95506.91;4978217;28;20054;-75
2021/10/03 11:15:22;;;;;;;7.63;3.00;;;;;;;22.42;53.99;95508.91;4995691;28;20046;-76
2021/10/03 11:17:49;;;;;;;5.60;3.50;;;;;;;22.44;55.95;95506.50;4986279;28;20050;-75
2021/10/03 11:20:16;;;;;;;4.85;2.60;;;;;;;22.48;55.13;95498.91;4985033;28;20049;-75
2021/10/03 11:22:44;;;;;;;4.80;3.28;;;;;;;22.56;55.21;95494.84;4986313;28;20050;-75
2021/10/03 11:25:17;;;;;;;4.50;3.38;;;;;;;22.63;54.97;95494.75;4985059;28;20050;-78
2021/10/03 11:27:54;;;;;;;5.97;3.15;;;;;;;22.70;54.80;95493.06;4986681;28;20046;-75
2021/10/03 11:30:21;;;;;;;4.35;2.90;;;;;;;22.78;54.24;95483.47;4967233;28;20227;-77
2021/10/03 11:32:47;;;;;;;6.28;3.30;;;;;;;22.86;54.23;95493.25;4982021;28;20073;-76